createdAt,value
2022-08-19T00:02:24.644Z,39.61
2022-08-19T00:04:58.183Z,39.54
2022-08-19T00:07:31.753Z,39.51
2022-08-19T00:10:06.054Z,39.46
2022-08-19T00:12:39.911Z,39.45
2022-08-19T00:15:17.808Z,39.60
2022-08-19T00:17:52.035Z,39.84
2022-08-19T00:20:27.052Z,40.20
2022-08-19T00:23:00.506Z,40.11
2022-08-19T00:25:34.567Z,40.37
2022-08-19T00:28:08.401Z,40.20
2022-08-19T00:30:42.592Z,40.37
2022-08-19T00:33:17.869Z,40.39
2022-08-19T00:35:55.910Z,40.42
2022-08-19T00:38:34.943Z,40.44
2022-08-19T00:41:03.248Z,40.42
2022-08-19T00:43:36.714Z,40.31
2022-08-19T00:46:10.716Z,40.40
2022-08-19T00:48:44.201Z,40.21
2022-08-19T00:51:17.545Z,40.22
2022-08-19T00:53:51.101Z,40.36
2022-08-19T00:56:25.355Z,40.52
2022-08-19T00:59:00.995Z,40.69
2022-08-19T01:01:34.522Z,40.45
2022-08-19T01:04:08.890Z,40.42
2022-08-19T01:06:43.661Z,40.50
2022-08-19T01:09:19.261Z,40.49
2022-08-19T01:11:53.590Z,40.16
2022-08-19T01:14:29.889Z,40.51
2022-08-19T01:17:04.238Z,40.12
2022-08-19T01:19:43.605Z,40.34
2022-08-19T01:22:26.466Z,40.50
2022-08-19T01:24:55.798Z,40.96
2022-08-19T01:27:35.281Z,40.77
2022-08-19T01:30:07.018Z,40.87
2022-08-19T01:32:40.694Z,41.07
2022-08-19T01:35:16.753Z,41.27
2022-08-19T01:37:52.985Z,41.38
2022-08-19T01:40:28.993Z,41.86
2022-08-19T01:43:03.240Z,41.84
2022-08-19T01:45:38.700Z,38.16
2022-08-19T01:48:12.268Z,40.96
2022-08-19T01:50:45.899Z,41.44
2022-08-19T01:53:21.098Z,41.76
2022-08-19T01:55:56.587Z,41.89
2022-08-19T01:58:33.290Z,41.76
2022-08-19T02:01:07.865Z,41.50
2022-08-19T02:03:41.795Z,41.16
2022-08-19T02:06:17.393Z,41.24
2022-08-19T02:08:51.623Z,41.26
2022-08-19T02:11:29.305Z,41.26
2022-08-19T02:14:03.670Z,41.45
2022-08-19T02:16:41.163Z,41.63
2022-08-19T02:19:14.872Z,41.94
2022-08-19T02:21:49.079Z,42.17
2022-08-19T02:24:22.319Z,42.33
2022-08-19T02:26:56.089Z,42.55
2022-08-19T02:29:29.747Z,42.71
2022-08-19T02:32:05.217Z,43.01
2022-08-19T02:34:38.628Z,43.03
2022-08-19T02:37:13.994Z,43.09
2022-08-19T02:39:47.502Z,43.22
2022-08-19T02:42:21.053Z,43.27
2022-08-19T02:44:56.646Z,43.48
2022-08-19T02:47:30.118Z,43.64
2022-08-19T02:50:05.322Z,43.36
2022-08-19T02:52:38.831Z,43.17
2022-08-19T02:55:12.790Z,43.30
2022-08-19T02:57:46.023Z,42.87
2022-08-19T03:00:20.193Z,42.88
2022-08-19T03:02:53.716Z,42.82
2022-08-19T03:05:45.956Z,42.81
2022-08-19T03:08:02.817Z,42.47
2022-08-19T03:10:38.328Z,42.56
2022-08-19T03:13:11.589Z,42.78
2022-08-19T03:15:46.765Z,42.66
2022-08-19T03:18:21.058Z,42.38
2022-08-19T03:20:57.263Z,42.06
2022-08-19T03:23:30.721Z,41.73
2022-08-19T03:26:16.337Z,41.51
2022-08-19T03:28:49.477Z,41.53
2022-08-19T03:31:43.319Z,41.36
2022-08-19T03:33:54.983Z,41.06
2022-08-19T03:36:29.722Z,41.21
2022-08-19T03:39:04.367Z,41.26
2022-08-19T03:41:45.594Z,41.43
2022-08-19T03:44:19.488Z,41.41
2022-08-19T03:46:56.372Z,41.36
2022-08-19T03:49:32.032Z,41.03
2022-08-19T03:52:08.678Z,40.74
2022-08-19T03:54:42.221Z,40.81
2022-08-19T03:57:15.564Z,40.34
2022-08-19T03:59:49.342Z,40.41
2022-08-19T04:02:22.897Z,40.71
2022-08-19T04:04:57.353Z,40.77
2022-08-19T04:07:31.143Z,40.77
2022-08-19T04:10:05.414Z,40.82
2022-08-19T04:12:38.734Z,40.85
2022-08-19T04:15:13.700Z,40.82
2022-08-19T04:17:47.508Z,40.69
2022-08-19T04:20:21.198Z,40.73
2022-08-19T04:22:54.954Z,40.54
2022-08-19T04:25:28.301Z,40.45
2022-08-19T04:28:01.840Z,40.28
2022-08-19T04:30:40.747Z,40.33
2022-08-19T04:33:16.747Z,40.07
2022-08-19T04:35:50.967Z,40.06
2022-08-19T04:38:25.416Z,38.25
2022-08-19T04:41:16.260Z,39.28
2022-08-19T04:43:51.979Z,39.33
2022-08-19T04:46:40.667Z,39.18
2022-08-19T04:49:01.477Z,39.32
2022-08-19T04:51:37.907Z,39.19
2022-08-19T04:54:11.338Z,39.03
2022-08-19T04:56:45.383Z,39.19
2022-08-19T04:59:19.856Z,39.10
2022-08-19T05:01:53.501Z,39.16
2022-08-19T05:04:27.063Z,38.94
2022-08-19T05:07:02.289Z,38.91
2022-08-19T05:09:58.545Z,38.97
2022-08-19T05:12:12.008Z,39.10
2022-08-19T05:14:46.249Z,38.73
2022-08-19T05:17:30.138Z,38.74
2022-08-19T05:20:16.307Z,38.58
2022-08-19T05:22:51.479Z,38.41
2022-08-19T05:25:26.795Z,38.47
2022-08-19T05:27:59.994Z,38.23
2022-08-19T05:30:46.821Z,38.09
2022-08-19T05:33:12.045Z,38.13
2022-08-19T05:35:45.511Z,38.10
2022-08-19T05:38:19.512Z,37.84
2022-08-19T05:40:53.276Z,37.58
2022-08-19T05:43:27.471Z,37.40
2022-08-19T05:46:00.865Z,37.29
2022-08-19T05:48:34.418Z,37.19
2022-08-19T05:51:10.207Z,37.25
2022-08-19T05:53:43.313Z,37.18
2022-08-19T05:56:18.798Z,37.11
2022-08-19T05:58:54.199Z,37.22
2022-08-19T06:01:29.004Z,37.36
2022-08-19T06:04:02.363Z,37.17
2022-08-19T06:06:41.380Z,37.23
2022-08-19T06:09:14.543Z,37.14
2022-08-19T06:11:56.058Z,36.86
2022-08-19T06:14:32.258Z,36.75
2022-08-19T06:17:07.681Z,36.76
2022-08-19T06:19:42.154Z,36.75
2022-08-19T06:22:15.735Z,36.73
2022-08-19T06:24:49.338Z,36.66
2022-08-19T06:27:23.423Z,36.51
2022-08-19T06:30:22.231Z,36.32
2022-08-19T06:32:55.686Z,36.32
2022-08-19T06:35:30.527Z,36.30
2022-08-19T06:38:04.472Z,36.06
2022-08-19T06:40:39.147Z,36.25
2022-08-19T06:43:12.736Z,35.93
2022-08-19T06:45:47.766Z,35.89
2022-08-19T06:48:21.677Z,35.60
2022-08-19T06:50:55.434Z,35.45
2022-08-19T06:53:29.133Z,35.44
2022-08-19T06:56:03.613Z,35.32
2022-08-19T06:58:37.021Z,34.91
2022-08-19T07:01:10.992Z,34.54
2022-08-19T07:03:44.611Z,33.98
2022-08-19T07:08:56.424Z,32.39
2022-08-19T07:11:31.940Z,31.77
2022-08-19T07:14:07.639Z,31.57
2022-08-19T07:16:43.154Z,31.75
2022-08-19T07:19:18.829Z,31.84
2022-08-19T07:21:54.377Z,32.12
2022-08-19T07:24:31.204Z,31.87
2022-08-19T07:27:15.073Z,31.58
2022-08-19T07:29:42.687Z,31.64
2022-08-19T07:32:16.160Z,31.59
2022-08-19T07:34:50.026Z,31.99
2022-08-19T07:37:24.204Z,31.60
2022-08-19T07:39:58.056Z,32.13
2022-08-19T07:42:31.989Z,33.08
2022-08-19T07:45:06.228Z,33.84
2022-08-19T07:47:58.845Z,33.77
2022-08-19T07:50:16.171Z,33.82
2022-08-19T07:52:50.860Z,33.84
2022-08-19T07:55:41.202Z,33.69
2022-08-19T07:58:02.725Z,33.47
2022-08-19T08:00:38.032Z,33.24
2022-08-19T08:03:11.857Z,33.14
2022-08-19T08:06:02.817Z,33.11
2022-08-19T08:08:53.549Z,33.05
2022-08-19T08:11:27.252Z,33.05
2022-08-19T08:14:04.620Z,32.47
2022-08-19T08:16:47.014Z,31.79
2022-08-19T08:19:20.580Z,30.54
2022-08-19T08:21:52.351Z,29.88
2022-08-19T08:24:28.751Z,29.74
2022-08-19T08:27:03.193Z,29.81
2022-08-19T08:29:38.837Z,29.12
2022-08-19T08:32:14.748Z,28.20
2022-08-19T08:34:47.490Z,26.98
2022-08-19T08:37:23.277Z,27.43
2022-08-19T08:39:56.961Z,28.23
2022-08-19T08:42:33.299Z,28.42
2022-08-19T08:45:11.498Z,28.60
2022-08-19T08:47:47.580Z,28.01
2022-08-19T08:50:26.490Z,26.13
2022-08-19T08:53:01.085Z,24.52
2022-08-19T08:55:36.948Z,23.83
2022-08-19T08:58:15.161Z,23.28
2022-08-19T09:00:51.138Z,23.24
2022-08-19T09:03:27.221Z,23.21
2022-08-19T09:06:11.942Z,22.67
2022-08-19T09:08:47.988Z,23.33
2022-08-19T09:11:42.644Z,23.98
2022-08-19T09:14:06.754Z,24.86
2022-08-19T09:16:41.737Z,25.12
2022-08-19T09:19:17.356Z,25.25
2022-08-19T09:21:52.720Z,25.00
2022-08-19T09:24:31.019Z,24.70
2022-08-19T09:27:18.240Z,23.67
2022-08-19T09:29:39.181Z,22.51
2022-08-19T09:32:26.344Z,21.23
2022-08-19T09:34:51.318Z,20.69
2022-08-19T09:37:25.672Z,20.33
2022-08-19T09:40:02.566Z,19.03
2022-08-19T09:42:36.677Z,18.52
2022-08-19T09:45:12.926Z,17.67
2022-08-19T09:47:47.321Z,16.89
2022-08-19T09:50:21.636Z,16.49
2022-08-19T09:52:59.818Z,17.14
2022-08-19T09:55:33.303Z,17.31
2022-08-19T09:58:07.609Z,17.88
2022-08-19T10:00:42.349Z,19.25
2022-08-19T10:03:16.152Z,20.15
2022-08-19T10:05:55.132Z,20.47
2022-08-19T10:08:30.846Z,20.08
2022-08-19T10:11:27.509Z,19.96
2022-08-19T10:13:44.566Z,19.71
2022-08-19T10:16:21.059Z,18.91
2022-08-19T10:18:59.023Z,18.00
2022-08-19T10:21:33.889Z,18.11
2022-08-19T10:24:09.656Z,18.09
2022-08-19T10:26:46.426Z,18.34
2022-08-19T10:29:32.282Z,17.88
2022-08-19T10:32:00.546Z,17.09
2022-08-19T10:34:33.396Z,17.47
2022-08-19T10:37:08.478Z,17.28
2022-08-19T10:39:43.723Z,18.00
2022-08-19T10:42:21.849Z,18.65
2022-08-19T10:44:55.537Z,17.37
2022-08-19T10:47:31.580Z,16.33
2022-08-19T10:50:22.671Z,15.75
2022-08-19T10:52:57.907Z,15.41
2022-08-19T10:55:48.850Z,15.36
2022-08-19T10:58:25.802Z,15.28
2022-08-19T11:01:01.020Z,15.85
2022-08-19T11:03:34.530Z,15.35
2022-08-19T11:06:12.792Z,15.75
2022-08-19T11:08:46.764Z,15.31
2022-08-19T11:11:20.321Z,14.99
2022-08-19T11:13:54.268Z,15.37
2022-08-19T11:16:30.629Z,15.85
2022-08-19T11:19:04.488Z,16.14
2022-08-19T11:21:40.592Z,16.31
2022-08-19T11:24:16.572Z,16.42
2022-08-19T11:26:51.882Z,16.11
2022-08-19T11:29:27.440Z,15.33
2022-08-19T11:32:02.876Z,14.85
2022-08-19T11:34:36.561Z,14.22
2022-08-19T11:37:10.196Z,13.85
2022-08-19T11:39:43.937Z,13.11
2022-08-19T11:42:37.270Z,12.33
2022-08-19T11:45:13.716Z,12.13
2022-08-19T11:47:46.492Z,11.84
2022-08-19T11:50:20.565Z,14.59
2022-08-19T11:52:55.586Z,11.98
2022-08-19T11:55:29.110Z,11.73
2022-08-19T11:58:02.687Z,12.14
2022-08-19T12:00:36.531Z,12.08
2022-08-19T12:03:10.566Z,12.06
2022-08-19T12:05:44.728Z,11.82
2022-08-19T12:08:18.148Z,11.87
2022-08-19T12:10:51.637Z,11.88
2022-08-19T12:13:25.285Z,12.03
2022-08-19T12:15:59.432Z,12.37
2022-08-19T12:18:33.105Z,12.72
2022-08-19T12:21:06.879Z,13.66
2022-08-19T12:23:40.261Z,14.39
2022-08-19T12:26:14.429Z,15.54
2022-08-19T12:28:49.158Z,15.49
2022-08-19T12:31:23.223Z,15.30
2022-08-19T12:33:56.870Z,15.28
2022-08-19T12:36:30.731Z,15.88
2022-08-19T12:39:05.410Z,16.88
2022-08-19T12:41:45.081Z,18.11
2022-08-19T12:44:15.759Z,18.94
2022-08-19T12:46:53.907Z,19.70
2022-08-19T12:49:52.499Z,19.54
2022-08-19T12:52:06.669Z,19.65
2022-08-19T12:54:40.316Z,19.44
2022-08-19T12:57:14.764Z,18.75
2022-08-19T12:59:48.515Z,18.30
2022-08-19T13:02:22.401Z,17.82
2022-08-19T13:04:55.796Z,17.55
2022-08-19T13:07:29.384Z,17.25
2022-08-19T13:10:05.468Z,17.00
2022-08-19T13:12:39.181Z,17.07
2022-08-19T13:15:15.071Z,17.06
2022-08-19T13:17:50.101Z,16.97
2022-08-19T13:20:24.657Z,16.83
2022-08-19T13:22:59.324Z,16.60
2022-08-19T13:25:32.861Z,16.25
2022-08-19T13:28:07.996Z,16.16
2022-08-19T13:30:59.103Z,16.41
2022-08-19T13:33:34.007Z,17.65
2022-08-19T13:36:08.957Z,16.30
2022-08-19T13:38:42.585Z,16.02
2022-08-19T13:45:25.299Z,15.80
2022-08-19T13:48:11.189Z,16.47
2022-08-19T13:51:11.023Z,16.58
2022-08-19T13:53:48.072Z,18.09
2022-08-19T14:21:59.628Z,19.61
2022-08-19T14:24:33.308Z,19.91
2022-08-19T14:27:07.579Z,20.37
2022-08-19T14:29:41.325Z,20.09
2022-08-19T14:32:16.831Z,19.80
2022-08-19T14:34:49.974Z,20.73
2022-08-19T14:37:23.893Z,21.91
2022-08-19T14:39:58.451Z,23.27
2022-08-19T14:42:32.300Z,23.27
2022-08-19T14:45:07.167Z,22.89
2022-08-19T14:47:40.918Z,22.76
2022-08-19T14:50:18.311Z,23.25
2022-08-19T14:52:51.883Z,23.89
2022-08-19T14:55:25.628Z,24.82
2022-08-19T14:57:59.210Z,24.94
2022-08-19T15:00:34.383Z,25.16
2022-08-19T15:03:09.626Z,24.80
2022-08-19T15:05:43.169Z,24.35
2022-08-19T15:08:16.873Z,24.31
2022-08-19T15:10:50.232Z,24.66
2022-08-19T15:13:26.124Z,24.52
2022-08-19T15:16:00.020Z,24.54
2022-08-19T15:18:36.555Z,24.57
2022-08-19T15:21:10.332Z,24.82
2022-08-19T15:23:46.259Z,25.28
2022-08-19T15:26:22.671Z,26.19
2022-08-19T15:28:57.107Z,27.07
2022-08-19T15:31:32.474Z,27.55
2022-08-19T15:34:07.522Z,28.22
2022-08-19T15:36:40.939Z,28.72
2022-08-19T15:39:14.417Z,28.94
2022-08-19T15:41:48.558Z,29.22
2022-08-19T15:44:26.716Z,29.15
2022-08-19T15:47:00.484Z,28.89
2022-08-19T15:49:34.354Z,28.55
2022-08-19T15:52:08.417Z,28.86
2022-08-19T15:54:42.096Z,29.08
2022-08-19T15:57:33.369Z,29.26
2022-08-19T16:00:26.934Z,29.12
2022-08-19T16:03:18.144Z,29.36
2022-08-19T16:06:09.446Z,29.55
2022-08-19T16:08:49.093Z,29.83
2022-08-19T16:11:21.522Z,29.96
2022-08-19T16:13:56.009Z,29.79
2022-08-19T16:16:34.157Z,30.08
2022-08-19T16:21:53.381Z,30.47
2022-08-19T16:24:28.783Z,30.39
2022-08-19T16:27:03.959Z,30.32
2022-08-19T16:29:39.517Z,30.16
2022-08-19T16:32:14.708Z,30.01
2022-08-19T16:34:49.415Z,30.02
2022-08-19T16:37:23.768Z,30.00
2022-08-19T16:39:57.853Z,29.86
2022-08-19T16:42:34.478Z,29.93
2022-08-19T16:45:10.378Z,29.82
2022-08-19T16:47:43.835Z,29.75
2022-08-19T16:50:22.120Z,29.76
2022-08-19T16:52:52.767Z,29.90
2022-08-19T16:55:28.507Z,29.82
2022-08-19T16:58:03.824Z,29.72
2022-08-19T17:00:37.640Z,29.84
2022-08-19T17:03:15.152Z,29.80
2022-08-19T17:05:48.569Z,29.86
2022-08-19T17:08:22.957Z,29.71
2022-08-19T17:11:17.053Z,29.76
2022-08-19T17:13:34.593Z,29.87
2022-08-19T17:16:09.035Z,29.91
2022-08-19T17:18:42.882Z,30.07
2022-08-19T17:21:16.463Z,30.19
2022-08-19T17:23:50.607Z,30.30
2022-08-19T17:26:25.445Z,30.19
2022-08-19T17:29:00.453Z,30.15
2022-08-19T17:31:35.204Z,30.52
2022-08-19T17:34:09.351Z,30.49
2022-08-19T17:36:42.911Z,30.57
2022-08-19T17:39:16.400Z,30.68
2022-08-19T17:41:50.060Z,30.74
2022-08-19T17:44:23.571Z,30.92
2022-08-19T17:46:56.830Z,30.95
2022-08-19T17:49:30.044Z,31.12
2022-08-19T17:52:09.980Z,31.14
2022-08-19T17:54:41.540Z,31.00
2022-08-19T17:57:15.786Z,31.00
2022-08-19T17:59:49.580Z,30.99
2022-08-19T18:02:23.330Z,31.10
2022-08-19T18:04:56.694Z,31.29
2022-08-19T18:07:32.494Z,31.03
2022-08-19T18:10:06.657Z,31.19
2022-08-19T18:12:40.633Z,31.33
2022-08-19T18:15:15.386Z,31.65
2022-08-19T18:17:49.242Z,31.60
2022-08-19T18:20:23.249Z,31.55
2022-08-19T18:22:59.489Z,31.45
2022-08-19T18:25:35.007Z,31.42
2022-08-19T18:28:08.570Z,31.49
2022-08-19T18:30:43.150Z,31.38
2022-08-19T18:33:18.785Z,31.28
2022-08-19T18:35:53.290Z,30.90
2022-08-19T18:38:44.728Z,30.84
2022-08-19T18:41:39.116Z,30.56
2022-08-19T18:44:30.439Z,30.48
2022-08-19T18:47:21.305Z,30.79
2022-08-19T18:49:54.993Z,30.64
2022-08-19T18:52:30.370Z,30.49
2022-08-19T18:55:06.044Z,30.54
2022-08-19T18:57:39.375Z,30.61
2022-08-19T19:00:18.552Z,30.60
2022-08-19T19:02:55.318Z,30.57
2022-08-19T19:05:30.918Z,30.59
2022-08-19T19:08:04.980Z,30.54
2022-08-19T19:10:39.196Z,30.44
2022-08-19T19:13:16.265Z,30.43
2022-08-19T19:15:51.746Z,30.29
2022-08-19T19:18:25.399Z,30.32
2022-08-19T19:20:59.751Z,30.34
2022-08-19T19:23:34.023Z,30.38
2022-08-19T19:26:09.362Z,30.33
2022-08-19T19:28:45.709Z,30.37
2022-08-19T19:31:22.877Z,30.48
2022-08-19T19:33:57.576Z,30.61
2022-08-19T19:36:31.056Z,30.66
2022-08-19T19:39:04.643Z,30.84
2022-08-19T19:41:38.136Z,30.81
2022-08-19T19:44:30.823Z,30.91
2022-08-19T19:46:48.286Z,30.99
2022-08-19T19:49:21.834Z,30.87
2022-08-19T19:51:55.201Z,31.08
2022-08-19T19:54:28.658Z,30.90
2022-08-19T19:57:02.343Z,31.09
2022-08-19T19:59:35.854Z,31.03
2022-08-19T20:02:11.994Z,30.95
2022-08-19T20:04:49.127Z,31.15
2022-08-19T20:07:27.359Z,31.14
2022-08-19T20:10:02.476Z,31.30
2022-08-19T20:12:39.405Z,31.32
2022-08-19T20:15:13.130Z,31.19
2022-08-19T20:17:47.881Z,31.06
2022-08-19T20:20:25.492Z,31.21
2022-08-19T20:22:59.662Z,31.06
2022-08-19T20:25:37.434Z,31.03
2022-08-19T20:28:12.491Z,30.91
2022-08-19T20:30:48.244Z,31.03
2022-08-19T20:33:21.676Z,31.00
2022-08-19T20:35:54.795Z,30.88
2022-08-19T20:38:32.940Z,30.79
2022-08-19T20:41:08.323Z,30.86
2022-08-19T20:43:44.222Z,30.80
2022-08-19T20:46:18.499Z,30.79
2022-08-19T20:48:51.874Z,31.00
2022-08-19T20:51:25.875Z,31.27
2022-08-19T20:54:00.255Z,31.08
2022-08-19T20:56:35.888Z,31.09
2022-08-19T20:59:10.704Z,31.13
2022-08-19T21:01:48.262Z,31.11
2022-08-19T21:04:23.407Z,31.31
2022-08-19T21:06:56.990Z,31.27
2022-08-19T21:09:32.975Z,31.26
2022-08-19T21:12:09.113Z,31.53
2022-08-19T21:14:46.010Z,31.37
2022-08-19T21:17:20.506Z,31.42
2022-08-19T21:19:56.449Z,31.41
2022-08-19T21:22:31.238Z,31.58
2022-08-19T21:25:09.614Z,31.79
2022-08-19T21:27:44.102Z,31.72
2022-08-19T21:30:18.218Z,31.91
2022-08-19T21:32:52.816Z,32.02
2022-08-19T21:35:26.774Z,32.04
2022-08-19T21:38:00.439Z,32.11
2022-08-19T21:40:34.974Z,32.19
2022-08-19T21:43:08.444Z,32.27
2022-08-19T21:45:42.134Z,32.35
2022-08-19T21:48:16.030Z,32.37
2022-08-19T21:50:51.079Z,32.40
2022-08-19T21:53:24.700Z,32.51
2022-08-19T21:56:00.129Z,32.67
2022-08-19T21:58:34.368Z,32.77
2022-08-19T22:01:08.659Z,32.80
2022-08-19T22:03:43.328Z,32.81
2022-08-19T22:06:17.808Z,32.86
2022-08-19T22:08:51.380Z,32.74
2022-08-19T22:11:25.172Z,32.77
2022-08-19T22:13:58.659Z,32.95
2022-08-19T22:16:32.663Z,32.92
2022-08-19T22:19:06.866Z,33.03
2022-08-19T22:21:41.203Z,33.33
2022-08-19T22:24:15.024Z,33.37
2022-08-19T22:26:48.674Z,33.53
2022-08-19T22:29:25.065Z,33.83
2022-08-19T22:31:58.297Z,34.07
2022-08-19T22:34:32.397Z,34.31
2022-08-19T22:37:06.688Z,34.29
2022-08-19T22:39:40.112Z,34.46
2022-08-19T22:42:14.094Z,34.46
2022-08-19T22:44:47.621Z,34.62
2022-08-19T22:47:21.158Z,34.79
2022-08-19T22:49:54.865Z,34.71
2022-08-19T22:52:28.656Z,34.92
2022-08-19T22:55:07.064Z,35.11
2022-08-19T22:57:41.383Z,34.90
2022-08-19T23:00:17.505Z,34.84
2022-08-19T23:02:52.603Z,34.93
2022-08-19T23:05:28.841Z,34.73
2022-08-19T23:08:03.141Z,34.78
2022-08-19T23:10:36.823Z,34.90
2022-08-19T23:13:10.927Z,34.90
2022-08-19T23:15:45.105Z,34.73
2022-08-19T23:18:20.184Z,34.87
2022-08-19T23:20:54.760Z,34.81
2022-08-19T23:23:29.144Z,34.96
2022-08-19T23:26:02.806Z,35.21
2022-08-19T23:29:01.057Z,35.29
2022-08-19T23:31:36.495Z,35.61
2022-08-19T23:34:10.026Z,35.81
2022-08-19T23:36:43.676Z,36.11
2022-08-19T23:39:20.363Z,36.35
2022-08-19T23:41:55.938Z,36.52
2022-08-19T23:44:31.003Z,36.56
2022-08-19T23:47:06.287Z,36.87
2022-08-19T23:49:42.586Z,37.18
2022-08-19T23:52:16.053Z,36.73
2022-08-19T23:54:49.593Z,36.84
2022-08-19T23:57:23.183Z,36.99
2022-08-19T23:59:57.010Z,36.74
